JAGUR11 PAEI-PAED
Flight info
| Callsign | JAGUR11 |
|---|---|
| Flight time | 0h 47m |
| Altitude | 26000 |
| Route | RUNDY1 BIG CRUZR |
| Aircraft | JAGR/M-SABDE2E3FGHIJ1J3J4J5P2RWXY/LB1D1 |
Departure
| Time | 2026-04-22 06:39 |
|---|---|
| Airport | Eielson Air Force Base (PAEI) |
Arrival
| Time | 2026-04-22 07:26 |
|---|---|
| Airport | Elmendorf Air Force Base (PAED) |
| Time | Latitude | Longitude | Altitude | Speed | Heading |
|---|---|---|---|---|---|
| 2026-04-22 06:23 | 64.67721 | -147.10413 | 552 ft | 0 kts | 219° |
| 2026-04-22 06:30 | 64.67673 | -147.10428 | 552 ft | 12 kts | 171° |
| 2026-04-22 06:30 | 64.67610 | -147.10375 | 560 ft | 8 kts | 159° |
| 2026-04-22 06:31 | 64.67557 | -147.10328 | 552 ft | 8 kts | 158° |
| 2026-04-22 06:31 | 64.67512 | -147.10285 | 552 ft | 6 kts | 157° |
| 2026-04-22 06:31 | 64.67483 | -147.10259 | 561 ft | 3 kts | 161° |
| 2026-04-22 06:31 | 64.67467 | -147.10246 | 556 ft | 5 kts | 161° |
| 2026-04-22 06:32 | 64.67396 | -147.10188 | 561 ft | 12 kts | 160° |
| 2026-04-22 06:32 | 64.67318 | -147.10135 | 554 ft | 11 kts | 172° |
| 2026-04-22 06:32 | 64.67251 | -147.10137 | 551 ft | 11 kts | 179° |
| 2026-04-22 06:32 | 64.67167 | -147.10101 | 551 ft | 12 kts | 156° |
| 2026-04-22 06:33 | 64.67060 | -147.10001 | 554 ft | 20 kts | 162° |
| 2026-04-22 06:33 | 64.66979 | -147.09858 | 551 ft | 11 kts | 100° |
| 2026-04-22 06:33 | 64.66978 | -147.09841 | 552 ft | 0 kts | 98° |
| 2026-04-22 06:35 | 64.66978 | -147.09840 | 552 ft | 1 kts | 98° |
| 2026-04-22 06:35 | 64.66928 | -147.09845 | 552 ft | 16 kts | 185° |
| 2026-04-22 06:35 | 64.66809 | -147.09776 | 554 ft | 17 kts | 158° |
| 2026-04-22 06:35 | 64.66714 | -147.09690 | 557 ft | 12 kts | 158° |
| 2026-04-22 06:36 | 64.66632 | -147.09615 | 559 ft | 20 kts | 158° |
| 2026-04-22 06:36 | 64.66447 | -147.09465 | 552 ft | 11 kts | 199° |
| 2026-04-22 06:36 | 64.66414 | -147.09570 | 551 ft | 16 kts | 238° |
| 2026-04-22 06:36 | 64.66378 | -147.09750 | 551 ft | 12 kts | 252° |
| 2026-04-22 06:37 | 64.66372 | -147.09954 | 549 ft | 13 kts | 301° |
| 2026-04-22 06:37 | 64.66399 | -147.09996 | 549 ft | 0 kts | 333° |
| 2026-04-22 06:37 | 64.66447 | -147.10047 | 548 ft | 4 kts | 340° |
| 2026-04-22 06:37 | 64.66448 | -147.10047 | 548 ft | 0 kts | 341° |
| 2026-04-22 06:38 | 64.66598 | -147.10176 | 548 ft | 72 kts | 339° |
| 2026-04-22 06:38 | 64.67391 | -147.10912 | 548 ft | 168 kts | 340° |
| 2026-04-22 06:38 | 64.68195 | -147.11351 | 759 ft | 174 kts | 351° |
| 2026-04-22 06:39 | 64.69684 | -147.11885 | 2513 ft | 175 kts | 328° |
| 2026-04-22 06:39 | 64.70410 | -147.13655 | 4150 ft | 146 kts | 287° |
| 2026-04-22 06:39 | 64.70452 | -147.16188 | 5098 ft | 168 kts | 256° |
| 2026-04-22 06:39 | 64.70081 | -147.19270 | 5311 ft | 231 kts | 256° |
| 2026-04-22 06:40 | 64.69706 | -147.23294 | 5808 ft | 274 kts | 262° |
| 2026-04-22 06:40 | 64.69712 | -147.26390 | 6142 ft | 301 kts | 277° |
| 2026-04-22 06:40 | 64.70530 | -147.31451 | 6659 ft | 340 kts | 296° |
| 2026-04-22 06:40 | 64.71676 | -147.36567 | 7124 ft | 365 kts | 291° |
| 2026-04-22 06:41 | 64.72308 | -147.42450 | 7598 ft | 382 kts | 274° |
| 2026-04-22 06:41 | 64.72241 | -147.46629 | 7893 ft | 393 kts | 262° |
| 2026-04-22 06:41 | 64.70920 | -147.54715 | 8602 ft | 411 kts | 239° |
| 2026-04-22 06:41 | 64.69720 | -147.58200 | 8984 ft | 419 kts | 228° |
| 2026-04-22 06:42 | 64.67333 | -147.62311 | 9564 ft | 431 kts | 212° |
| 2026-04-22 06:42 | 64.64513 | -147.64673 | 10131 ft | 441 kts | 197° |
| 2026-04-22 06:42 | 64.61424 | -147.65117 | 10659 ft | 450 kts | 180° |
| 2026-04-22 06:42 | 64.58342 | -147.63454 | 11177 ft | 460 kts | 163° |
| 2026-04-22 06:43 | 64.55572 | -147.59953 | 11713 ft | 467 kts | 150° |
| 2026-04-22 06:43 | 64.53029 | -147.55338 | 12268 ft | 470 kts | 142° |
| 2026-04-22 06:43 | 64.50663 | -147.49977 | 12847 ft | 472 kts | 137° |
| 2026-04-22 06:43 | 64.48457 | -147.44435 | 13423 ft | 472 kts | 136° |
| 2026-04-22 06:44 | 64.46271 | -147.38710 | 14011 ft | 472 kts | 135° |
| 2026-04-22 06:44 | 64.44185 | -147.32796 | 14533 ft | 474 kts | 128° |
| 2026-04-22 06:44 | 64.42650 | -147.26079 | 15056 ft | 478 kts | 115° |
| 2026-04-22 06:44 | 64.41417 | -147.18917 | 15606 ft | 478 kts | 112° |
| 2026-04-22 06:45 | 64.40264 | -147.11784 | 16157 ft | 478 kts | 112° |
| 2026-04-22 06:45 | 64.39140 | -147.04670 | 16715 ft | 477 kts | 111° |
| 2026-04-22 06:45 | 64.38001 | -146.97412 | 17301 ft | 476 kts | 111° |
| 2026-04-22 06:45 | 64.36881 | -146.90280 | 17885 ft | 476 kts | 111° |
| 2026-04-22 06:46 | 64.35744 | -146.83069 | 18480 ft | 475 kts | 111° |
| 2026-04-22 06:46 | 64.34622 | -146.75977 | 18990 ft | 474 kts | 111° |
| 2026-04-22 06:46 | 64.33483 | -146.68808 | 19513 ft | 473 kts | 111° |
| 2026-04-22 06:46 | 64.32356 | -146.61738 | 20046 ft | 472 kts | 111° |
| 2026-04-22 06:47 | 64.31213 | -146.54597 | 20592 ft | 471 kts | 111° |
| 2026-04-22 06:47 | 64.30084 | -146.47575 | 21138 ft | 470 kts | 111° |
| 2026-04-22 06:47 | 64.28834 | -146.40627 | 21697 ft | 467 kts | 119° |
| 2026-04-22 06:47 | 64.27229 | -146.34142 | 22267 ft | 462 kts | 127° |
| 2026-04-22 06:48 | 64.25376 | -146.28262 | 22844 ft | 455 kts | 134° |
| 2026-04-22 06:48 | 64.23338 | -146.22696 | 23429 ft | 451 kts | 137° |
| 2026-04-22 06:48 | 64.21290 | -146.17360 | 23957 ft | 447 kts | 138° |
| 2026-04-22 06:48 | 64.19223 | -146.12043 | 24447 ft | 443 kts | 139° |
| 2026-04-22 06:49 | 64.17171 | -146.06788 | 24943 ft | 439 kts | 139° |
| 2026-04-22 06:49 | 64.15131 | -146.01728 | 25445 ft | 431 kts | 142° |
| 2026-04-22 06:49 | 64.13003 | -145.96945 | 25882 ft | 426 kts | 145° |
| 2026-04-22 06:49 | 64.11015 | -145.92807 | 26084 ft | 428 kts | 147° |
| 2026-04-22 06:50 | 64.09176 | -145.89186 | 26140 ft | 433 kts | 149° |
| 2026-04-22 06:50 | 64.06830 | -145.84785 | 26253 ft | 436 kts | 150° |
| 2026-04-22 06:50 | 64.04462 | -145.80512 | 26561 ft | 434 kts | 151° |
| 2026-04-22 06:50 | 64.02079 | -145.76319 | 26953 ft | 430 kts | 152° |
| 2026-04-22 06:51 | 63.99682 | -145.72186 | 27218 ft | 431 kts | 153° |
| 2026-04-22 06:51 | 63.97254 | -145.68074 | 27314 ft | 436 kts | 153° |
| 2026-04-22 06:51 | 63.94883 | -145.64123 | 27392 ft | 440 kts | 153° |
| 2026-04-22 06:51 | 63.92417 | -145.60064 | 27601 ft | 440 kts | 153° |
| 2026-04-22 06:52 | 63.89919 | -145.55976 | 27919 ft | 438 kts | 154° |
| 2026-04-22 06:52 | 63.87444 | -145.51942 | 28176 ft | 438 kts | 154° |
| 2026-04-22 06:52 | 63.84946 | -145.48088 | 28172 ft | 435 kts | 162° |
| 2026-04-22 06:52 | 63.82179 | -145.45772 | 28052 ft | 413 kts | 183° |
| 2026-04-22 06:53 | 63.79397 | -145.45542 | 27938 ft | 385 kts | 204° |
| 2026-04-22 06:53 | 63.76983 | -145.47260 | 27818 ft | 355 kts | 224° |
| 2026-04-22 06:53 | 63.75091 | -145.50405 | 27809 ft | 336 kts | 237° |
| 2026-04-22 06:53 | 63.73448 | -145.54236 | 27798 ft | 336 kts | 242° |
| 2026-04-22 06:54 | 63.71922 | -145.58263 | 27809 ft | 339 kts | 243° |
| 2026-04-22 06:54 | 63.70414 | -145.62443 | 27806 ft | 344 kts | 244° |
| 2026-04-22 06:54 | 63.68933 | -145.66644 | 27806 ft | 349 kts | 244° |
| 2026-04-22 06:54 | 63.67413 | -145.71013 | 27800 ft | 354 kts | 244° |
| 2026-04-22 06:55 | 63.65903 | -145.75387 | 27801 ft | 359 kts | 244° |
| 2026-04-22 06:55 | 63.64362 | -145.79880 | 27798 ft | 363 kts | 244° |
| 2026-04-22 06:55 | 63.62808 | -145.84430 | 27795 ft | 368 kts | 244° |
| 2026-04-22 06:55 | 63.61260 | -145.88987 | 27790 ft | 372 kts | 244° |
| 2026-04-22 06:56 | 63.59681 | -145.93653 | 27785 ft | 376 kts | 244° |
| 2026-04-22 06:56 | 63.58092 | -145.98353 | 27782 ft | 378 kts | 244° |
| 2026-04-22 06:56 | 63.56490 | -146.03090 | 27778 ft | 381 kts | 244° |
| 2026-04-22 06:56 | 63.54904 | -146.07798 | 27780 ft | 383 kts | 244° |
| 2026-04-22 06:57 | 63.53304 | -146.12558 | 27779 ft | 385 kts | 244° |
| 2026-04-22 06:57 | 63.51683 | -146.17396 | 27766 ft | 387 kts | 244° |
| 2026-04-22 06:57 | 63.50053 | -146.22250 | 27769 ft | 389 kts | 244° |
| 2026-04-22 06:57 | 63.48439 | -146.27047 | 27763 ft | 391 kts | 244° |
| 2026-04-22 06:58 | 63.46796 | -146.31937 | 27761 ft | 393 kts | 244° |
| 2026-04-22 06:58 | 63.45172 | -146.36789 | 27766 ft | 394 kts | 244° |
| 2026-04-22 06:58 | 63.43551 | -146.41644 | 27758 ft | 395 kts | 244° |
| 2026-04-22 06:58 | 63.41868 | -146.46678 | 27759 ft | 397 kts | 244° |
| 2026-04-22 06:59 | 63.40220 | -146.51602 | 27765 ft | 398 kts | 244° |
| 2026-04-22 06:59 | 63.38551 | -146.56583 | 27759 ft | 401 kts | 243° |
| 2026-04-22 06:59 | 63.36576 | -146.61090 | 27760 ft | 423 kts | 229° |
| 2026-04-22 06:59 | 63.34026 | -146.64677 | 27761 ft | 438 kts | 221° |
| 2026-04-22 07:00 | 63.31255 | -146.67734 | 27759 ft | 446 kts | 217° |
| 2026-04-22 07:00 | 63.28465 | -146.70623 | 27760 ft | 443 kts | 220° |
| 2026-04-22 07:00 | 63.25895 | -146.74227 | 27753 ft | 429 kts | 229° |
| 2026-04-22 07:00 | 63.23595 | -146.78395 | 27752 ft | 423 kts | 233° |
| 2026-04-22 07:01 | 63.21442 | -146.82731 | 27757 ft | 422 kts | 234° |
| 2026-04-22 07:01 | 63.19205 | -146.87028 | 27751 ft | 429 kts | 229° |
| 2026-04-22 07:01 | 63.16712 | -146.90859 | 27752 ft | 439 kts | 224° |
| 2026-04-22 07:01 | 63.14095 | -146.94299 | 27746 ft | 444 kts | 222° |
| 2026-04-22 07:02 | 63.11475 | -146.97928 | 27750 ft | 437 kts | 226° |
| 2026-04-22 07:02 | 63.09040 | -147.01827 | 27747 ft | 434 kts | 229° |
| 2026-04-22 07:02 | 63.06654 | -147.05921 | 27749 ft | 432 kts | 230° |
| 2026-04-22 07:02 | 63.04341 | -147.10109 | 27745 ft | 435 kts | 231° |
| 2026-04-22 07:03 | 63.02011 | -147.14509 | 27747 ft | 442 kts | 232° |
| 2026-04-22 07:03 | 62.99678 | -147.19024 | 27743 ft | 449 kts | 232° |
| 2026-04-22 07:03 | 62.97341 | -147.23547 | 27739 ft | 456 kts | 231° |
| 2026-04-22 07:03 | 62.94811 | -147.28006 | 27745 ft | 470 kts | 226° |
| 2026-04-22 07:04 | 62.92096 | -147.32067 | 27749 ft | 482 kts | 223° |
| 2026-04-22 07:04 | 62.89209 | -147.36042 | 27750 ft | 491 kts | 221° |
| 2026-04-22 07:04 | 62.86300 | -147.39907 | 27754 ft | 498 kts | 221° |
| 2026-04-22 07:04 | 62.83293 | -147.43847 | 27750 ft | 504 kts | 220° |
| 2026-04-22 07:05 | 62.80249 | -147.47819 | 27748 ft | 510 kts | 220° |
| 2026-04-22 07:05 | 62.77215 | -147.51777 | 27748 ft | 515 kts | 220° |
| 2026-04-22 07:05 | 62.74112 | -147.55834 | 27750 ft | 520 kts | 220° |
| 2026-04-22 07:05 | 62.71025 | -147.59884 | 27750 ft | 525 kts | 220° |
| 2026-04-22 07:06 | 62.67866 | -147.64047 | 27751 ft | 529 kts | 220° |
| 2026-04-22 07:06 | 62.64739 | -147.68186 | 27752 ft | 533 kts | 220° |
| 2026-04-22 07:06 | 62.61551 | -147.72419 | 27757 ft | 536 kts | 220° |
| 2026-04-22 07:06 | 62.58392 | -147.76624 | 27756 ft | 538 kts | 220° |
| 2026-04-22 07:07 | 62.55186 | -147.80902 | 27758 ft | 539 kts | 220° |
| 2026-04-22 07:07 | 62.51986 | -147.85179 | 27755 ft | 539 kts | 220° |
| 2026-04-22 07:07 | 62.48819 | -147.89416 | 27755 ft | 539 kts | 220° |
| 2026-04-22 07:07 | 62.45617 | -147.93710 | 27758 ft | 539 kts | 220° |
| 2026-04-22 07:08 | 62.42465 | -147.97942 | 27755 ft | 539 kts | 220° |
| 2026-04-22 07:08 | 62.39262 | -148.02251 | 27768 ft | 539 kts | 220° |
| 2026-04-22 07:08 | 62.36070 | -148.06548 | 27752 ft | 539 kts | 220° |
| 2026-04-22 07:08 | 62.32921 | -148.10793 | 27758 ft | 539 kts | 220° |
| 2026-04-22 07:09 | 62.29725 | -148.15107 | 27761 ft | 539 kts | 220° |
| 2026-04-22 07:09 | 62.26565 | -148.19374 | 27756 ft | 540 kts | 220° |
| 2026-04-22 07:09 | 62.23366 | -148.23697 | 27761 ft | 540 kts | 220° |
| 2026-04-22 07:09 | 62.20206 | -148.27973 | 27765 ft | 540 kts | 220° |
| 2026-04-22 07:10 | 62.17016 | -148.32294 | 27754 ft | 540 kts | 220° |
| 2026-04-22 07:10 | 62.13906 | -148.36632 | 27757 ft | 537 kts | 222° |
| 2026-04-22 07:10 | 62.10903 | -148.41364 | 27727 ft | 534 kts | 225° |
| 2026-04-22 07:10 | 62.08012 | -148.46285 | 27241 ft | 539 kts | 226° |
| 2026-04-22 07:11 | 62.05107 | -148.51449 | 26699 ft | 543 kts | 227° |
| 2026-04-22 07:11 | 62.02219 | -148.56704 | 26182 ft | 547 kts | 227° |
| 2026-04-22 07:11 | 61.99322 | -148.62041 | 25674 ft | 550 kts | 227° |
| 2026-04-22 07:11 | 61.96428 | -148.67418 | 25175 ft | 554 kts | 228° |
| 2026-04-22 07:12 | 61.93552 | -148.72781 | 24691 ft | 557 kts | 228° |
| 2026-04-22 07:12 | 61.90623 | -148.78261 | 24195 ft | 558 kts | 228° |
| 2026-04-22 07:12 | 61.87718 | -148.83702 | 23738 ft | 556 kts | 228° |
| 2026-04-22 07:12 | 61.84855 | -148.89079 | 23201 ft | 556 kts | 227° |
| 2026-04-22 07:13 | 61.81956 | -148.94532 | 22639 ft | 557 kts | 228° |
| 2026-04-22 07:13 | 61.79053 | -149.00031 | 22011 ft | 557 kts | 228° |
| 2026-04-22 07:13 | 61.76215 | -149.05419 | 21363 ft | 546 kts | 228° |
| 2026-04-22 07:13 | 61.73418 | -149.10712 | 20710 ft | 530 kts | 228° |
| 2026-04-22 07:14 | 61.70679 | -149.15832 | 20066 ft | 520 kts | 227° |
| 2026-04-22 07:14 | 61.67990 | -149.20713 | 19445 ft | 512 kts | 227° |
| 2026-04-22 07:14 | 61.65297 | -149.25592 | 18825 ft | 507 kts | 226° |
| 2026-04-22 07:14 | 61.62520 | -149.30209 | 18196 ft | 505 kts | 222° |
| 2026-04-22 07:15 | 61.59772 | -149.34625 | 17543 ft | 497 kts | 227° |
| 2026-04-22 07:15 | 61.57375 | -149.39789 | 16878 ft | 486 kts | 235° |
| 2026-04-22 07:15 | 61.56196 | -149.43031 | 16507 ft | 481 kts | 240° |
| 2026-04-22 07:16 | 61.54494 | -149.49090 | 15859 ft | 474 kts | 247° |
| 2026-04-22 07:16 | 61.53136 | -149.55354 | 15227 ft | 472 kts | 249° |
| 2026-04-22 07:16 | 61.51795 | -149.61628 | 14603 ft | 471 kts | 249° |
| 2026-04-22 07:16 | 61.50484 | -149.67933 | 13990 ft | 471 kts | 249° |
| 2026-04-22 07:17 | 61.49205 | -149.74171 | 13309 ft | 471 kts | 249° |
| 2026-04-22 07:17 | 61.47900 | -149.80499 | 12617 ft | 471 kts | 248° |
| 2026-04-22 07:17 | 61.46603 | -149.86582 | 11955 ft | 448 kts | 248° |
| 2026-04-22 07:17 | 61.45369 | -149.92375 | 11296 ft | 423 kts | 248° |
| 2026-04-22 07:18 | 61.44225 | -149.97840 | 10642 ft | 395 kts | 248° |
| 2026-04-22 07:18 | 61.43160 | -150.02931 | 10009 ft | 368 kts | 248° |
| 2026-04-22 07:18 | 61.42157 | -150.07626 | 9318 ft | 346 kts | 246° |
| 2026-04-22 07:18 | 61.41198 | -150.12022 | 8631 ft | 316 kts | 246° |
| 2026-04-22 07:19 | 61.40320 | -150.16060 | 7950 ft | 291 kts | 246° |
| 2026-04-22 07:19 | 61.39520 | -150.19780 | 7305 ft | 275 kts | 245° |
| 2026-04-22 07:19 | 61.38639 | -150.23203 | 6639 ft | 261 kts | 233° |
| 2026-04-22 07:19 | 61.37443 | -150.25822 | 6146 ft | 242 kts | 218° |
| 2026-04-22 07:20 | 61.36079 | -150.27636 | 5704 ft | 224 kts | 205° |
| 2026-04-22 07:20 | 61.34692 | -150.28801 | 5279 ft | 209 kts | 201° |
| 2026-04-22 07:20 | 61.33427 | -150.29838 | 5203 ft | 175 kts | 202° |
| 2026-04-22 07:20 | 61.32432 | -150.30667 | 5176 ft | 138 kts | 201° |
| 2026-04-22 07:21 | 61.31542 | -150.31405 | 4468 ft | 145 kts | 201° |
| 2026-04-22 07:21 | 61.30459 | -150.32304 | 4123 ft | 183 kts | 201° |
| 2026-04-22 07:21 | 61.29160 | -150.32962 | 4971 ft | 207 kts | 178° |
| 2026-04-22 07:21 | 61.27686 | -150.32247 | 5960 ft | 238 kts | 158° |
| 2026-04-22 07:22 | 61.26223 | -150.29907 | 6396 ft | 289 kts | 133° |
| 2026-04-22 07:22 | 61.25258 | -150.26286 | 6737 ft | 290 kts | 110° |
| 2026-04-22 07:22 | 61.24905 | -150.22239 | 6847 ft | 274 kts | 109° |
| 2026-04-22 07:22 | 61.24301 | -150.18752 | 6073 ft | 239 kts | 119° |
| 2026-04-22 07:23 | 61.23570 | -150.15768 | 4767 ft | 225 kts | 120° |
| 2026-04-22 07:23 | 61.23003 | -150.12929 | 4020 ft | 200 kts | 111° |
| 2026-04-22 07:23 | 61.22692 | -150.10210 | 3288 ft | 192 kts | 101° |
| 2026-04-22 07:23 | 61.22768 | -150.07553 | 3003 ft | 180 kts | 77° |
| 2026-04-22 07:24 | 61.23151 | -150.05099 | 2863 ft | 182 kts | 77° |
| 2026-04-22 07:24 | 61.23502 | -150.02578 | 2848 ft | 179 kts | 79° |
| 2026-04-22 07:24 | 61.23764 | -150.00026 | 2677 ft | 185 kts | 85° |
| 2026-04-22 07:24 | 61.23843 | -149.97262 | 2336 ft | 198 kts | 93° |
| 2026-04-22 07:25 | 61.23864 | -149.94332 | 1814 ft | 211 kts | 84° |
| 2026-04-22 07:25 | 61.24258 | -149.91490 | 1032 ft | 194 kts | 71° |
| 2026-04-22 07:25 | 61.24562 | -149.88927 | 525 ft | 172 kts | 79° |
| 2026-04-22 07:25 | 61.24715 | -149.86605 | 395 ft | 165 kts | 83° |
| 2026-04-22 07:26 | 61.24909 | -149.84091 | 241 ft | 173 kts | 82° |
| 2026-04-22 07:26 | 61.25035 | -149.82412 | 190 ft | 46 kts | 80° |
| 2026-04-22 07:26 | 61.25052 | -149.82044 | 199 ft | 13 kts | 119° |
| 2026-04-22 07:26 | 61.25000 | -149.81992 | 193 ft | 6 kts | 165° |
| 2026-04-22 07:27 | 61.24963 | -149.81956 | 199 ft | 6 kts | 130° |
| 2026-04-22 07:27 | 61.24959 | -149.81889 | 201 ft | 3 kts | 80° |
| 2026-04-22 07:27 | 61.24961 | -149.81870 | 193 ft | 0 kts | 80° |
| 2026-04-22 07:28 | 61.25023 | -149.81795 | 198 ft | 15 kts | 17° |
| 2026-04-22 07:28 | 61.25157 | -149.81760 | 195 ft | 25 kts | 358° |
| 2026-04-22 07:28 | 61.25295 | -149.81727 | 197 ft | 15 kts | 8° |
| 2026-04-22 07:29 | 61.25374 | -149.81733 | 208 ft | 7 kts | 343° |
| 2026-04-22 07:29 | 61.25413 | -149.81774 | 197 ft | 5 kts | 313° |
| 2026-04-22 07:29 | 61.25404 | -149.81834 | 195 ft | 3 kts | 201° |
| 2026-04-22 07:29 | 61.25386 | -149.81835 | 198 ft | 0 kts | 171° |